Time;durP1;ratioP1;P1;durP2;ratioP2;P2;SDS_P1;SDS_P2;PMS_P1;PMS_P2;Temp;Humidity;BMP_temperature;BMP_pressure;BME280_temperature;BME280_humidity;BME280_pressure;Samples;Min_cycle;Max_cycle;Signal;HPM_P1;HPM_P2
2021/12/23 00:00:04;;;;;;;1.00;1.00;;;-2.50;99.90;;;;;;5032889;28;20053;-84
2021/12/23 00:02:29;;;;;;;1.10;1.10;;;-2.50;99.90;;;;;;5059460;28;20045;-83
2021/12/23 00:04:55;;;;;;;1.25;1.15;;;-2.50;99.90;;;;;;5060390;28;20041;-82
2021/12/23 00:07:20;;;;;;;1.00;1.00;;;-2.40;99.90;;;;;;5076067;28;20482;-82
2021/12/23 00:12:16;;;;;;;1.00;1.00;;;-2.40;99.90;;;;;;5054235;28;20071;-84
2021/12/23 00:14:43;;;;;;;1.60;1.50;;;-2.40;99.90;;;;;;5060696;28;20060;-84
2021/12/23 00:19:58;;;;;;;1.60;1.50;;;-2.40;99.90;;;;;;5059201;28;20056;-83
2021/12/23 00:25:08;;;;;;;0.93;0.93;;;-2.30;99.90;;;;;;5060516;28;20053;-83
2021/12/23 00:27:34;;;;;;;1.95;1.60;;;-2.30;99.90;;;;;;5068569;28;20063;-84
2021/12/23 00:29:59;;;;;;;1.08;1.08;;;-2.20;99.90;;;;;;5061856;28;20104;-82
2021/12/23 00:32:25;;;;;;;1.40;1.30;;;-2.20;99.90;;;;;;5052830;28;20517;-83
2021/12/23 00:34:50;;;;;;;1.10;1.10;;;-2.10;99.90;;;;;;5059890;28;20041;-84
2021/12/23 00:37:17;;;;;;;1.17;1.17;;;-2.10;99.90;;;;;;5076709;28;20049;-82
2021/12/23 00:39:45;;;;;;;1.95;1.85;;;-2.10;99.90;;;;;;5074631;28;20425;-83
2021/12/23 00:42:11;;;;;;;1.92;1.70;;;-2.10;99.90;;;;;;5043326;28;20045;-84
2021/12/23 00:44:46;;;;;;;1.75;1.65;;;-2.10;99.90;;;;;;5060544;28;20094;-84
2021/12/23 00:47:12;;;;;;;1.67;1.58;;;-2.10;99.90;;;;;;5075397;28;20044;-84
2021/12/23 00:49:38;;;;;;;1.10;1.10;;;-2.10;99.90;;;;;;5060283;28;20168;-84
2021/12/23 00:52:05;;;;;;;1.65;1.55;;;-2.10;99.90;;;;;;5059554;28;20076;-85
2021/12/23 00:54:31;;;;;;;1.15;1.10;;;-2.00;99.90;;;;;;5042913;28;20059;-84
2021/12/23 00:56:57;;;;;;;1.33;1.23;;;-1.60;99.90;;;;;;5072776;28;20470;-84
2021/12/23 00:59:22;;;;;;;1.30;1.20;;;-2.00;99.90;;;;;;5060615;28;20045;-84
2021/12/23 01:01:48;;;;;;;1.00;1.00;;;-2.00;99.90;;;;;;5058211;28;20045;-83
2021/12/23 01:04:14;;;;;;;1.10;1.10;;;-2.00;99.90;;;;;;5043764;28;20045;-83
2021/12/23 01:06:39;;;;;;;1.00;1.00;;;-2.00;99.90;;;;;;5059707;28;20045;-83
2021/12/23 01:09:05;;;;;;;1.00;1.00;;;-2.00;99.90;;;;;;5059360;28;20041;-83
2021/12/23 01:11:31;;;;;;;1.10;1.10;;;-1.90;99.90;;;;;;5056036;28;20029;-84
2021/12/23 01:17:12;;;;;;;;;;;-1.90;99.90;;;;;;5059349;28;20040;-84
2021/12/23 01:19:39;;;;;;;1.30;1.20;;;-1.90;99.90;;;;;;5054492;28;20008;-84
2021/12/23 01:22:08;;;;;;;1.17;1.17;;;-1.90;99.90;;;;;;5073609;28;20298;-85
2021/12/23 01:24:34;;;;;;;1.25;1.17;;;-1.90;99.90;;;;;;5059119;28;20037;-83
2021/12/23 01:27:01;;;;;;;1.25;1.15;;;-1.60;99.90;;;;;;5042994;28;20043;-85
2021/12/23 01:29:27;;;;;;;0.90;0.90;;;-1.70;99.90;;;;;;5043040;28;20107;-84
2021/12/23 01:31:53;;;;;;;1.00;1.00;;;-1.80;99.90;;;;;;5043371;28;20041;-84
2021/12/23 01:34:18;;;;;;;1.52;1.42;;;-1.80;99.90;;;;;;5043552;28;20032;-84
2021/12/23 01:36:44;;;;;;;2.45;2.25;;;-1.80;99.90;;;;;;5074843;28;20055;-85
2021/12/23 01:39:10;;;;;;;3.42;2.00;;;-1.80;99.90;;;;;;5059381;28;20528;-85
2021/12/23 01:41:35;;;;;;;1.45;1.35;;;-1.70;99.90;;;;;;5058587;28;20132;-85
2021/12/23 01:44:01;;;;;;;1.23;1.17;;;-1.70;99.90;;;;;;5059347;28;20044;-86
2021/12/23 01:46:26;;;;;;;2.55;2.40;;;-1.60;99.90;;;;;;5058504;28;20040;-85
2021/12/23 01:48:53;;;;;;;1.88;1.75;;;-1.60;99.90;;;;;;5058562;28;20059;-85
2021/12/23 01:51:19;;;;;;;1.17;1.15;;;-1.50;99.90;;;;;;5041841;28;20040;-85
2021/12/23 01:53:45;;;;;;;1.08;1.05;;;-1.30;99.90;;;;;;5053577;28;20068;-85
2021/12/23 01:56:11;;;;;;;1.52;1.42;;;-1.20;99.90;;;;;;5051522;28;20036;-85
2021/12/23 01:58:39;;;;;;;1.65;1.55;;;-1.20;99.90;;;;;;5051861;28;20037;-84
2021/12/23 02:01:05;;;;;;;4.32;3.10;;;-1.20;99.90;;;;;;5053472;28;20041;-84
2021/12/23 02:03:31;;;;;;;1.10;1.10;;;-1.20;99.90;;;;;;5043570;28;20098;-84
2021/12/23 02:05:57;;;;;;;2.15;2.00;;;-1.40;99.90;;;;;;5042389;28;20037;-84
2021/12/23 02:08:22;;;;;;;1.13;1.10;;;-1.40;99.90;;;;;;5069792;28;20033;-85
2021/12/23 02:10:48;;;;;;;1.52;1.42;;;-1.50;99.90;;;;;;5050706;28;20069;-85
2021/12/23 02:13:14;;;;;;;1.52;1.42;;;-1.50;99.90;;;;;;5042913;28;20048;-83
2021/12/23 02:15:39;;;;;;;1.27;1.17;;;-1.60;99.90;;;;;;5058822;28;20288;-85
2021/12/23 02:18:05;;;;;;;1.15;1.15;;;-1.60;99.90;;;;;;5058331;28;20048;-84
2021/12/23 02:20:33;;;;;;;1.00;1.00;;;-1.60;99.90;;;;;;5069742;28;20045;-84
2021/12/23 02:22:59;;;;;;;1.25;1.17;;;-1.60;99.90;;;;;;5050483;28;20466;-85
2021/12/23 02:25:24;;;;;;;1.27;1.20;;;-1.60;99.90;;;;;;5042138;28;20064;-85
2021/12/23 02:27:53;;;;;;;1.10;1.10;;;-1.50;99.90;;;;;;5058642;28;20143;-85
2021/12/23 02:30:25;;;;;;;1.30;1.20;;;-1.40;99.90;;;;;;5052197;28;20037;-83
2021/12/23 02:32:52;;;;;;;1.30;1.20;;;-1.60;99.90;;;;;;5054065;28;20193;-84
2021/12/23 02:35:20;;;;;;;1.15;1.13;;;-1.60;99.90;;;;;;5059526;28;20538;-85
2021/12/23 02:37:47;;;;;;;2.28;1.60;;;-1.60;99.90;;;;;;5041649;28;20080;-85
2021/12/23 02:40:30;;;;;;;1.95;1.60;;;-1.60;99.90;;;;;;5055996;28;20029;-84
2021/12/23 02:43:05;;;;;;;1.00;1.00;;;-1.60;99.90;;;;;;5058902;28;20480;-83
2021/12/23 02:45:31;;;;;;;1.85;1.67;;;-1.60;99.90;;;;;;5049987;28;20065;-84
2021/12/23 02:47:57;;;;;;;1.40;1.30;;;-1.60;99.90;;;;;;5037726;28;20472;-84
2021/12/23 02:50:22;;;;;;;1.73;1.63;;;-1.60;99.90;;;;;;5058686;28;20041;-83
2021/12/23 02:52:48;;;;;;;1.05;1.05;;;-1.70;99.90;;;;;;5062014;28;20059;-85
2021/12/23 02:55:17;;;;;;;1.10;1.10;;;-1.70;99.90;;;;;;5065441;28;20182;-85
2021/12/23 02:57:43;;;;;;;1.83;1.63;;;-1.40;99.90;;;;;;5061182;28;20041;-85
2021/12/23 03:00:10;;;;;;;1.95;1.75;;;-1.60;99.90;;;;;;5061167;28;20061;-84
2021/12/23 03:02:40;;;;;;;1.10;1.10;;;-1.60;99.90;;;;;;5072387;28;20061;-84
2021/12/23 03:05:07;;;;;;;1.45;1.35;;;-1.60;99.90;;;;;;5076009;28;20037;-84
2021/12/23 03:07:33;;;;;;;1.35;1.25;;;;;;;;;;5065667;28;20045;-83
2021/12/23 03:09:59;;;;;;;2.55;2.35;;;-1.60;99.90;;;;;;5062470;28;20052;-84
2021/12/23 03:12:24;;;;;;;1.83;1.73;;;-1.60;99.90;;;;;;5041369;28;20036;-85
2021/12/23 03:14:50;;;;;;;1.27;1.17;;;-1.50;99.90;;;;;;5061641;28;20124;-84
2021/12/23 03:17:15;;;;;;;2.45;2.22;;;-1.50;99.90;;;;;;5056648;28;20042;-85
2021/12/23 03:19:41;;;;;;;1.75;1.65;;;-1.50;99.90;;;;;;5073053;28;20036;-84
2021/12/23 03:22:07;;;;;;;3.38;2.45;;;-1.50;99.90;;;;;;5044099;28;20127;-84
2021/12/23 03:24:32;;;;;;;1.52;1.42;;;-1.50;99.90;;;;;;5074705;28;20629;-85
2021/12/23 03:26:58;;;;;;;1.10;1.10;;;;;;;;;;5057130;28;20500;-83
2021/12/23 03:29:24;;;;;;;0.98;0.98;;;-1.50;99.90;;;;;;5056691;28;20042;-83
2021/12/23 03:31:50;;;;;;;1.50;1.40;;;-1.40;99.90;;;;;;5068218;28;20409;-83
2021/12/23 03:34:16;;;;;;;7.25;1.60;;;-1.50;99.90;;;;;;5045067;28;20048;-83
2021/12/23 03:36:41;;;;;;;1.75;1.65;;;-1.40;99.90;;;;;;5057095;28;20047;-84
2021/12/23 03:39:07;;;;;;;1.30;1.20;;;-1.40;99.90;;;;;;5061787;28;20055;-84
2021/12/23 03:41:33;;;;;;;1.00;1.00;;;-1.40;99.90;;;;;;5056333;28;20064;-85
2021/12/23 03:43:58;;;;;;;1.13;1.13;;;-1.40;99.90;;;;;;5057265;28;20362;-84
2021/12/23 03:46:24;;;;;;;1.65;1.55;;;-1.40;99.90;;;;;;5066750;28;20055;-83
2021/12/23 03:48:50;;;;;;;0.90;0.90;;;-1.40;99.90;;;;;;5050853;28;20041;-84
2021/12/23 03:51:16;;;;;;;1.00;1.00;;;-1.40;99.90;;;;;;5067964;28;20067;-84
2021/12/23 03:53:41;;;;;;;1.40;1.30;;;-1.40;99.90;;;;;;5058620;28;20076;-84
2021/12/23 03:56:07;;;;;;;1.10;1.10;;;-1.40;99.90;;;;;;5063080;28;20041;-84
2021/12/23 03:58:33;;;;;;;1.08;1.08;;;-1.40;99.90;;;;;;5060399;28;20064;-83
2021/12/23 04:00:59;;;;;;;0.90;0.90;;;-1.40;99.90;;;;;;5040678;28;20108;-84
2021/12/23 04:03:25;;;;;;;7.45;2.20;;;-1.40;99.90;;;;;;5060676;28;20123;-84
2021/12/23 04:05:51;;;;;;;1.33;1.20;;;-1.40;99.90;;;;;;5044058;28;20132;-85
2021/12/23 04:08:16;;;;;;;1.83;1.73;;;-1.40;99.90;;;;;;5061432;28;20036;-85
2021/12/23 04:10:42;;;;;;;1.40;1.30;;;-1.40;99.90;;;;;;5043710;28;20045;-84
2021/12/23 04:13:08;;;;;;;1.55;1.45;;;-1.40;99.90;;;;;;5057677;28;20068;-84
2021/12/23 04:15:33;;;;;;;1.10;1.10;;;-1.40;99.90;;;;;;5069675;28;20097;-84
2021/12/23 04:17:59;;;;;;;1.88;1.77;;;-1.40;99.90;;;;;;5059048;28;20041;-83
2021/12/23 04:20:32;;;;;;;1.13;1.05;;;-1.40;99.90;;;;;;5060637;28;20045;-83
2021/12/23 04:22:58;;;;;;;0.90;0.90;;;-1.40;99.90;;;;;;5043896;28;20041;-83
2021/12/23 04:25:25;;;;;;;1.83;1.73;;;-1.10;99.90;;;;;;5058150;28;20040;-84
2021/12/23 04:27:53;;;;;;;1.27;1.20;;;-1.30;99.90;;;;;;5072186;28;20044;-83
2021/12/23 04:30:20;;;;;;;0.93;0.93;;;-1.30;99.90;;;;;;5060475;28;20111;-83
2021/12/23 04:32:46;;;;;;;1.42;1.33;;;-1.30;99.90;;;;;;5075242;28;20041;-84
2021/12/23 04:35:12;;;;;;;0.93;0.93;;;-1.30;99.90;;;;;;5067974;28;20037;-84
2021/12/23 04:37:38;;;;;;;1.80;1.70;;;-1.30;99.90;;;;;;5065955;28;20052;-83
2021/12/23 04:40:07;;;;;;;1.52;1.42;;;-1.30;99.90;;;;;;5059849;28;20040;-83
2021/12/23 04:42:33;;;;;;;1.05;1.05;;;-1.30;99.90;;;;;;5042614;28;20659;-84
2021/12/23 04:44:58;;;;;;;1.00;1.00;;;-1.30;99.90;;;;;;5046976;28;20041;-85
2021/12/23 04:47:24;;;;;;;1.98;1.88;;;-1.30;99.90;;;;;;5068916;28;20661;-84
2021/12/23 04:49:49;;;;;;;1.33;1.23;;;-1.20;99.90;;;;;;5043067;28;20041;-83
2021/12/23 04:52:15;;;;;;;2.10;1.98;;;-1.30;99.90;;;;;;5045821;28;20037;-84
2021/12/23 04:54:41;;;;;;;1.45;1.35;;;-1.20;99.90;;;;;;5060108;28;20079;-83
2021/12/23 04:57:06;;;;;;;1.60;1.52;;;-1.20;99.90;;;;;;5050476;28;20068;-83
2021/12/23 04:59:32;;;;;;;0.93;0.93;;;-0.60;99.90;;;;;;5061257;28;20053;-82
2021/12/23 05:01:57;;;;;;;2.15;1.98;;;-1.10;99.90;;;;;;5052623;28;20067;-83
2021/12/23 05:04:23;;;;;;;1.10;1.10;;;-1.20;99.90;;;;;;5058217;28;20071;-83
2021/12/23 05:06:49;;;;;;;3.33;2.38;;;-1.20;99.90;;;;;;5054196;28;20128;-83
2021/12/23 05:09:14;;;;;;;4.00;2.03;;;-1.20;99.90;;;;;;5061204;28;20079;-83
2021/12/23 05:11:40;;;;;;;1.20;1.20;;;-1.10;99.90;;;;;;5042400;28;20041;-83
2021/12/23 05:14:05;;;;;;;1.77;1.67;;;-1.20;99.90;;;;;;5059981;28;20144;-84
2021/12/23 05:16:31;;;;;;;2.67;2.33;;;-1.00;99.90;;;;;;5063158;28;20063;-84
2021/12/23 05:18:56;;;;;;;1.35;1.25;;;-1.10;99.90;;;;;;5058604;28;20032;-83
2021/12/23 05:21:22;;;;;;;1.02;1.02;;;-1.20;99.90;;;;;;5059172;28;20520;-83
2021/12/23 05:23:47;;;;;;;1.05;1.05;;;-1.10;99.90;;;;;;5068906;28;20068;-83
2021/12/23 05:26:13;;;;;;;1.00;1.00;;;-1.10;99.90;;;;;;5059194;28;20507;-84
2021/12/23 05:28:39;;;;;;;1.48;1.38;;;-1.10;99.90;;;;;;5059661;28;20037;-82
2021/12/23 05:31:05;;;;;;;1.42;1.33;;;-1.10;99.90;;;;;;5057671;28;20049;-83
2021/12/23 05:33:31;;;;;;;1.80;1.65;;;-1.00;99.90;;;;;;5059354;28;20037;-82
2021/12/23 05:35:58;;;;;;;1.30;1.20;;;-1.00;99.90;;;;;;5054044;28;20125;-83
2021/12/23 05:38:24;;;;;;;1.75;1.65;;;-1.00;99.90;;;;;;5059823;28;20116;-83
2021/12/23 05:40:50;;;;;;;0.98;0.98;;;-1.00;99.90;;;;;;5051151;28;20064;-83
2021/12/23 05:43:16;;;;;;;1.17;1.15;;;-1.10;99.90;;;;;;5059519;28;20037;-84
2021/12/23 05:45:41;;;;;;;1.02;1.02;;;-1.00;99.90;;;;;;5058717;28;20052;-84
2021/12/23 05:48:07;;;;;;;2.08;1.88;;;-1.00;99.90;;;;;;5058169;28;20052;-83
2021/12/23 05:50:33;;;;;;;2.75;1.25;;;-1.00;99.90;;;;;;5057075;28;20072;-83
2021/12/23 05:52:58;;;;;;;1.40;1.30;;;-1.00;99.90;;;;;;5059389;28;20104;-83
2021/12/23 05:55:25;;;;;;;1.20;1.20;;;-1.00;99.90;;;;;;5041982;28;20077;-83
2021/12/23 05:57:51;;;;;;;0.80;0.80;;;-1.00;99.90;;;;;;5059103;28;20049;-83
2021/12/23 06:00:26;;;;;;;1.95;1.85;;;-1.00;99.90;;;;;;5056278;28;20056;-83
2021/12/23 06:02:53;;;;;;;1.65;1.55;;;-1.00;99.90;;;;;;5058233;28;20060;-83
2021/12/23 06:05:20;;;;;;;1.48;1.38;;;-1.00;99.90;;;;;;5063619;28;20059;-83
2021/12/23 06:07:46;;;;;;;1.10;1.10;;;-1.00;99.90;;;;;;5073958;28;20054;-84
2021/12/23 06:10:14;;;;;;;3.63;2.67;;;-1.00;99.90;;;;;;5041959;28;20091;-84
2021/12/23 06:12:39;;;;;;;1.40;1.30;;;-1.00;99.90;;;;;;5041928;28;20052;-83
2021/12/23 06:15:06;;;;;;;4.07;2.78;;;-1.00;99.90;;;;;;5059160;28;20033;-83
2021/12/23 06:17:31;;;;;;;1.67;1.58;;;-1.00;99.90;;;;;;5058140;28;20150;-83
2021/12/23 06:19:57;;;;;;;1.80;1.70;;;-0.90;99.90;;;;;;5042801;28;20121;-83
2021/12/23 06:22:22;;;;;;;1.48;1.38;;;-0.90;99.90;;;;;;5058655;28;20041;-83
2021/12/23 06:24:49;;;;;;;1.63;1.52;;;-0.90;99.90;;;;;;5059003;28;20033;-83
2021/12/23 06:27:16;;;;;;;1.20;1.15;;;-0.90;99.90;;;;;;5062619;28;20053;-83
2021/12/23 06:29:42;;;;;;;2.72;1.92;;;-0.90;99.90;;;;;;5071772;28;20083;-83
2021/12/23 06:32:08;;;;;;;1.58;1.48;;;-0.90;99.90;;;;;;5054804;28;20123;-84
2021/12/23 06:34:34;;;;;;;1.55;1.45;;;-0.80;99.90;;;;;;5062638;28;20064;-84
2021/12/23 06:37:00;;;;;;;1.40;1.30;;;-0.90;99.90;;;;;;5064120;28;20440;-84
2021/12/23 06:39:26;;;;;;;1.30;1.20;;;-0.80;99.90;;;;;;5061374;28;20048;-83
2021/12/23 06:41:52;;;;;;;1.27;1.17;;;-0.80;99.90;;;;;;5044979;28;20041;-84
2021/12/23 06:44:17;;;;;;;1.73;1.40;;;-0.80;99.90;;;;;;5062772;28;20048;-84
2021/12/23 06:46:43;;;;;;;2.30;1.98;;;-0.80;99.90;;;;;;5062090;28;20116;-84
2021/12/23 06:49:08;;;;;;;1.55;1.42;;;-0.90;99.90;;;;;;5062726;28;20045;-83
2021/12/23 06:51:34;;;;;;;1.10;1.10;;;-0.80;99.90;;;;;;5055135;28;20075;-83
2021/12/23 06:54:02;;;;;;;2.03;1.88;;;-0.70;99.90;;;;;;5055928;28;20052;-83
2021/12/23 06:56:27;;;;;;;1.20;1.17;;;-0.70;99.90;;;;;;5057209;28;20052;-83
2021/12/23 06:58:53;;;;;;;4.82;4.40;;;-0.80;99.90;;;;;;5039968;28;20097;-83
2021/12/23 07:01:21;;;;;;;1.23;1.17;;;-0.80;99.90;;;;;;5061264;28;20100;-84
2021/12/23 07:04:34;;;;;;;1.10;1.10;;;-0.80;99.90;;;;;;5061866;28;20060;-84
2021/12/23 07:06:35;;;;;;;12.07;2.63;;;-0.80;99.90;;;;;;5051379;28;20060;-83
2021/12/23 07:09:05;;;;;;;2.80;2.45;;;-0.70;99.90;;;;;;5062199;28;20096;-84
2021/12/23 07:11:32;;;;;;;1.67;1.58;;;-0.70;99.90;;;;;;5062670;28;20071;-83
2021/12/23 07:13:58;;;;;;;2.80;2.60;;;-0.70;99.90;;;;;;5061067;28;20049;-83
2021/12/23 07:16:23;;;;;;;1.27;1.20;;;-0.70;99.90;;;;;;5062500;28;20033;-84
2021/12/23 07:18:49;;;;;;;1.60;1.50;;;;;;;;;;5058291;28;20147;-83
2021/12/23 07:21:15;;;;;;;0.90;0.90;;;-0.70;99.90;;;;;;5050030;28;20131;-84
2021/12/23 07:23:41;;;;;;;1.67;1.58;;;-0.70;99.90;;;;;;5061929;28;20071;-82
2021/12/23 07:26:06;;;;;;;1.30;1.20;;;-0.60;99.90;;;;;;5061434;28;20033;-83
2021/12/23 07:28:32;;;;;;;1.30;1.20;;;-0.70;99.90;;;;;;5061383;28;20065;-84
2021/12/23 07:30:58;;;;;;;2.58;2.38;;;-0.60;99.90;;;;;;5043252;28;20077;-84
2021/12/23 07:33:23;;;;;;;0.93;0.93;;;-0.70;99.90;;;;;;5062363;28;20389;-83
2021/12/23 07:35:49;;;;;;;2.45;2.25;;;-0.70;99.90;;;;;;5061087;28;20509;-83
2021/12/23 07:38:15;;;;;;;2.67;2.45;;;-0.60;99.90;;;;;;5060356;28;20091;-83
2021/12/23 07:40:42;;;;;;;4.30;1.95;;;-0.70;99.90;;;;;;5059890;28;20033;-83
2021/12/23 07:43:21;;;;;;;2.15;2.00;;;-0.70;99.90;;;;;;5077066;28;20129;-83
2021/12/23 07:45:47;;;;;;;1.50;1.40;;;-0.70;99.90;;;;;;5071107;28;20079;-83
2021/12/23 07:48:12;;;;;;;1.80;1.70;;;-0.70;99.90;;;;;;5063493;28;20049;-83
2021/12/23 07:50:41;;;;;;;2.85;1.90;;;-0.70;99.90;;;;;;5040148;28;20076;-83
2021/12/23 07:53:06;;;;;;;1.00;1.00;;;-0.70;99.90;;;;;;5039300;28;20042;-83
2021/12/23 07:55:32;;;;;;;1.05;1.05;;;-0.50;99.90;;;;;;5055159;28;20069;-83
2021/12/23 07:57:58;;;;;;;1.77;1.67;;;-0.70;99.90;;;;;;5054063;28;20051;-82
2021/12/23 08:00:23;;;;;;;1.48;1.40;;;-0.70;99.90;;;;;;5062961;28;20041;-87
2021/12/23 08:02:50;;;;;;;1.00;1.00;;;-0.70;99.90;;;;;;5042413;28;20098;-87
2021/12/23 08:05:15;;;;;;;2.10;2.00;;;-0.70;99.90;;;;;;5044338;28;20033;-87
2021/12/23 08:07:41;;;;;;;1.00;1.00;;;-0.70;99.90;;;;;;5057917;28;20101;-86
2021/12/23 08:10:07;;;;;;;1.30;1.20;;;-0.70;99.90;;;;;;5060374;28;20103;-88
2021/12/23 08:12:33;;;;;;;1.50;1.42;;;-0.70;99.90;;;;;;5043669;28;20041;-86
2021/12/23 08:14:58;;;;;;;1.10;1.10;;;-0.70;99.90;;;;;;5060175;28;20152;-88
2021/12/23 08:17:24;;;;;;;2.45;2.10;;;-0.60;99.90;;;;;;5042213;28;20074;-87
2021/12/23 08:19:49;;;;;;;2.03;1.90;;;-0.60;99.90;;;;;;5051904;28;20388;-88
2021/12/23 08:22:15;;;;;;;1.73;1.63;;;-0.60;99.90;;;;;;5042864;28;20117;-88
2021/12/23 08:24:40;;;;;;;2.45;2.10;;;-0.60;99.90;;;;;;5044414;28;20144;-89
2021/12/23 08:27:08;;;;;;;5.50;1.77;;;-0.60;99.90;;;;;;5038280;28;20063;-89
2021/12/23 08:29:34;;;;;;;1.52;1.42;;;-0.60;99.90;;;;;;5042733;28;20041;-89
2021/12/23 08:31:59;;;;;;;1.55;1.45;;;-0.60;99.90;;;;;;5037142;28;20568;-88
2021/12/23 08:34:25;;;;;;;2.13;1.70;;;-0.60;99.90;;;;;;5041016;28;20041;-88
2021/12/23 08:36:52;;;;;;;1.42;1.33;;;-0.60;99.90;;;;;;5054188;28;20041;-84
2021/12/23 08:39:19;;;;;;;5.15;3.13;;;-0.60;99.90;;;;;;5056736;28;20038;-86
2021/12/23 08:41:45;;;;;;;2.42;2.22;;;-0.60;99.90;;;;;;5057289;28;20059;-84
2021/12/23 08:44:11;;;;;;;1.52;1.42;;;-0.70;99.90;;;;;;5059564;28;20053;-85
2021/12/23 08:46:37;;;;;;;2.58;2.15;;;-0.60;99.90;;;;;;5047579;28;20093;-85
2021/12/23 08:49:04;;;;;;;2.85;2.65;;;-0.70;99.90;;;;;;5056826;28;20532;-86
2021/12/23 08:51:32;;;;;;;1.65;1.55;;;-0.60;99.90;;;;;;5058567;28;20069;-86
2021/12/23 08:53:57;;;;;;;1.17;1.17;;;-0.70;99.90;;;;;;5041627;28;20041;-85
2021/12/23 08:56:23;;;;;;;1.92;1.83;;;-0.70;99.90;;;;;;5074523;28;20094;-86
2021/12/23 08:58:49;;;;;;;1.33;1.25;;;-0.60;99.90;;;;;;5057627;28;20044;-85
2021/12/23 09:01:15;;;;;;;3.85;2.65;;;-0.60;99.90;;;;;;5074264;28;20045;-86
2021/12/23 09:03:41;;;;;;;2.47;2.28;;;-0.60;99.90;;;;;;5074591;28;20555;-86
2021/12/23 09:06:06;;;;;;;1.50;1.40;;;-0.60;99.90;;;;;;5050799;28;20036;-87
2021/12/23 09:08:32;;;;;;;2.38;2.17;;;-0.60;99.90;;;;;;5071857;28;20051;-85
2021/12/23 09:10:59;;;;;;;2.45;2.25;;;-0.60;99.90;;;;;;5040684;28;20047;-85
2021/12/23 09:13:25;;;;;;;1.73;1.63;;;-0.60;99.90;;;;;;5058205;28;20144;-84
2021/12/23 09:15:51;;;;;;;1.55;1.45;;;-0.50;99.90;;;;;;5040730;28;20044;-86
2021/12/23 09:18:19;;;;;;;1.70;1.60;;;-0.50;99.90;;;;;;5058451;28;20068;-86
2021/12/23 09:20:46;;;;;;;1.15;1.08;;;-0.50;99.90;;;;;;5038254;28;20056;-85
2021/12/23 09:23:11;;;;;;;1.25;1.20;;;-0.50;99.90;;;;;;5058290;28;20052;-85
2021/12/23 09:25:38;;;;;;;1.83;1.73;;;-0.50;99.90;;;;;;5040971;28;20040;-84
2021/12/23 09:28:31;;;;;;;1.50;1.40;;;-0.50;99.90;;;;;;5058611;28;20081;-87
2021/12/23 09:33:37;;;;;;;1.33;1.25;;;;;;;;;;5052332;28;20056;-84
2021/12/23 09:36:03;;;;;;;2.95;2.67;;;-0.40;99.90;;;;;;5073643;28;20079;-84
2021/12/23 09:38:29;;;;;;;2.13;1.70;;;-0.40;99.90;;;;;;5058444;28;20037;-85
2021/12/23 09:41:02;;;;;;;3.63;1.48;;;-0.30;99.90;;;;;;5062983;28;20049;-84
2021/12/23 09:43:30;;;;;;;1.63;1.53;;;-0.40;99.90;;;;;;5039503;28;20049;-83
2021/12/23 09:45:56;;;;;;;2.15;1.65;;;-0.40;99.90;;;;;;5056435;28;20276;-85
2021/12/23 09:48:22;;;;;;;1.10;1.10;;;-0.40;99.90;;;;;;5071835;28;20051;-87
2021/12/23 09:50:50;;;;;;;2.20;1.75;;;-0.40;99.90;;;;;;5058532;28;20072;-86
2021/12/23 09:53:21;;;;;;;1.98;1.88;;;-0.40;99.90;;;;;;5068528;28;20048;-86
2021/12/23 09:55:47;;;;;;;4.30;4.00;;;-0.30;99.90;;;;;;5057154;28;20090;-87
2021/12/23 09:58:13;;;;;;;3.45;3.15;;;-0.30;99.90;;;;;;5045960;28;20041;-87
2021/12/23 10:00:45;;;;;;;1.02;1.02;;;-0.30;99.90;;;;;;5042716;28;20049;-87
2021/12/23 10:03:11;;;;;;;2.33;2.17;;;-0.30;99.90;;;;;;5063202;28;20072;-88
2021/12/23 10:05:37;;;;;;;1.10;1.10;;;-0.30;99.90;;;;;;5053189;28;20034;-87
2021/12/23 10:08:05;;;;;;;3.03;1.88;;;-0.30;99.90;;;;;;5048697;28;20558;-86
2021/12/23 10:13:19;;;;;;;1.00;1.00;;;-0.20;99.90;;;;;;5077064;28;20045;-86
2021/12/23 10:30:20;;;;;;;2.60;2.40;;;0.10;99.90;;;;;;5058132;28;20044;-88
2021/12/23 10:38:51;;;;;;;1.15;1.13;;;-0.20;99.90;;;;;;5069933;28;20519;-84
2021/12/23 10:41:26;;;;;;;1.30;1.20;;;-0.20;99.90;;;;;;5038799;28;20087;-84
2021/12/23 10:43:58;;;;;;;1.40;1.30;;;-0.20;99.90;;;;;;5060439;28;20164;-85
2021/12/23 10:46:35;;;;;;;7.30;2.35;;;-0.20;99.90;;;;;;5039579;28;20155;-85
2021/12/23 10:49:30;;;;;;;2.13;1.92;;;-0.20;99.90;;;;;;5058026;28;20061;-86
2021/12/23 10:52:03;;;;;;;3.50;1.60;;;-0.10;99.90;;;;;;5053854;28;20056;-85
2021/12/23 10:58:01;;;;;;;1.70;1.60;;;-0.10;99.90;;;;;;5074632;28;20037;-86
2021/12/23 11:00:49;;;;;;;1.00;1.00;;;-0.10;99.90;;;;;;5060729;28;20048;-85
2021/12/23 11:05:59;;;;;;;1.45;1.35;;;-0.10;99.90;;;;;;5070754;28;20139;-84
2021/12/23 11:38:12;;;;;;;2.55;1.75;;;0.00;99.90;;;;;;5067973;28;20105;-86
2021/12/23 11:45:44;;;;;;;3.55;2.72;;;0.00;99.90;;;;;;5059416;28;20141;-86
2021/12/23 11:48:09;;;;;;;1.42;1.33;;;0.00;99.90;;;;;;5040004;28;20370;-85
2021/12/23 11:50:52;;;;;;;1.55;1.45;;;0.00;99.90;;;;;;5076156;28;20047;-86
2021/12/23 11:53:18;;;;;;;2.63;2.40;;;0.00;99.90;;;;;;5053623;28;20052;-87
2021/12/23 11:55:45;;;;;;;6.43;3.53;;;0.00;99.90;;;;;;5037349;28;20033;-85
2021/12/23 11:58:12;;;;;;;1.48;1.38;;;0.00;99.90;;;;;;5072686;28;20081;-84
2021/12/23 12:00:42;;;;;;;1.15;1.10;;;0.00;99.90;;;;;;5052592;28;20048;-85
2021/12/23 12:03:09;;;;;;;1.10;1.10;;;0.00;99.90;;;;;;5073831;28;20037;-86
2021/12/23 12:05:36;;;;;;;1.52;1.42;;;0.00;99.90;;;;;;5054002;28;20051;-87
2021/12/23 12:08:05;;;;;;;2.47;2.22;;;0.00;99.90;;;;;;5051597;28;20033;-85
2021/12/23 12:10:32;;;;;;;0.90;0.90;;;0.00;99.90;;;;;;5072794;28;20048;-85
2021/12/23 12:13:07;;;;;;;4.72;2.58;;;0.00;99.90;;;;;;5057605;28;20062;-85
2021/12/23 12:15:49;;;;;;;1.58;1.48;;;0.10;99.90;;;;;;5058135;28;20052;-86
2021/12/23 12:18:23;;;;;;;1.80;1.65;;;0.10;99.90;;;;;;5058156;28;20501;-86
2021/12/23 12:20:53;;;;;;;;;;;0.10;99.90;;;;;;5047589;28;20388;-86
2021/12/23 12:23:36;;;;;;;1.30;1.20;;;0.10;99.90;;;;;;5056729;28;19990;-84
2021/12/23 12:26:10;;;;;;;2.78;2.58;;;0.10;99.90;;;;;;5059624;28;20076;-85
2021/12/23 12:28:39;;;;;;;1.33;1.23;;;0.20;99.90;;;;;;5056194;28;20059;-85
2021/12/23 12:31:10;;;;;;;2.83;1.92;;;0.20;99.90;;;;;;5056410;28;20091;-85
2021/12/23 12:33:55;;;;;;;1.52;1.42;;;0.30;99.90;;;;;;5037793;28;20215;-87
2021/12/23 12:36:22;;;;;;;1.75;1.65;;;0.20;99.90;;;;;;5058699;28;20079;-85
2021/12/23 12:39:15;;;;;;;2.20;2.05;;;0.20;99.90;;;;;;5037042;28;20044;-85
2021/12/23 12:41:41;;;;;;;3.55;2.33;;;0.30;99.90;;;;;;5056610;28;20049;-84
2021/12/23 12:44:22;;;;;;;2.17;1.95;;;0.30;99.90;;;;;;5052906;28;20072;-84
2021/12/23 12:47:05;;;;;;;0.90;0.90;;;0.30;99.90;;;;;;5049422;28;20045;-85
2021/12/23 12:49:34;;;;;;;6.80;2.30;;;0.30;99.90;;;;;;5068333;28;20042;-86
2021/12/23 12:52:23;;;;;;;1.65;1.55;;;0.40;99.90;;;;;;5055554;28;20155;-87
2021/12/23 12:54:58;;;;;;;0.98;0.98;;;0.30;99.90;;;;;;5056713;28;20037;-87
2021/12/23 12:57:31;;;;;;;1.73;1.63;;;0.40;99.90;;;;;;5042218;28;20209;-87
2021/12/23 13:00:00;;;;;;;1.60;1.50;;;0.40;99.90;;;;;;5048030;28;20048;-85
2021/12/23 13:02:29;;;;;;;1.30;1.20;;;0.40;99.90;;;;;;5049824;28;20048;-87
2021/12/23 13:05:06;;;;;;;1.27;1.23;;;0.40;99.90;;;;;;5055242;28;20045;-85
2021/12/23 13:07:35;;;;;;;1.83;1.73;;;0.50;99.90;;;;;;5057074;28;20053;-85
2021/12/23 13:10:08;;;;;;;1.27;1.20;;;0.50;99.90;;;;;;5042076;28;20600;-86
2021/12/23 13:12:52;;;;;;;2.03;1.90;;;0.50;99.90;;;;;;5041527;28;20124;-87
2021/12/23 13:15:28;;;;;;;1.80;1.65;;;0.50;99.90;;;;;;5040782;28;20045;-86
2021/12/23 13:17:59;;;;;;;2.75;2.15;;;0.50;99.90;;;;;;5041145;28;20064;-86
2021/12/23 13:20:33;;;;;;;2.42;2.22;;;0.40;99.90;;;;;;5048440;28;20125;-86
2021/12/23 13:23:15;;;;;;;1.42;1.33;;;0.50;99.90;;;;;;5055805;28;20037;-87
2021/12/23 13:25:48;;;;;;;3.45;2.30;;;0.40;99.90;;;;;;5055307;28;20183;-86
2021/12/23 13:28:29;;;;;;;1.48;1.38;;;0.40;99.90;;;;;;5053115;28;20049;-87
2021/12/23 13:30:56;;;;;;;1.10;1.10;;;0.40;99.90;;;;;;5031606;28;20045;-87
2021/12/23 13:33:22;;;;;;;3.40;1.90;;;0.40;99.90;;;;;;5059018;28;20068;-86
2021/12/23 13:35:48;;;;;;;6.55;4.45;;;0.50;99.90;;;;;;5055451;28;20049;-86
2021/12/23 13:38:27;;;;;;;2.58;2.38;;;0.40;99.90;;;;;;5058613;28;20155;-87
2021/12/23 13:40:52;;;;;;;3.70;2.85;;;;;;;;;;5040218;28;20048;-87
2021/12/23 13:43:34;;;;;;;1.10;1.10;;;0.30;99.90;;;;;;5040129;28;20127;-88
2021/12/23 13:46:04;;;;;;;1.10;1.10;;;0.30;99.90;;;;;;5040204;28;20102;-86
2021/12/23 13:48:30;;;;;;;2.75;2.45;;;0.50;99.90;;;;;;5054415;28;20079;-87
2021/12/23 13:50:58;;;;;;;2.40;2.20;;;0.30;99.90;;;;;;5050039;28;20041;-85
2021/12/23 13:53:23;;;;;;;2.75;2.47;;;0.40;99.90;;;;;;5051451;28;20037;-88
2021/12/23 13:55:50;;;;;;;2.17;1.98;;;0.40;99.90;;;;;;5053399;28;20115;-87
2021/12/23 13:58:26;;;;;;;5.18;3.65;;;0.30;99.90;;;;;;5054586;28;20045;-88
2021/12/23 14:00:52;;;;;;;2.92;2.13;;;0.30;99.90;;;;;;5055404;28;20048;-86
2021/12/23 14:03:18;;;;;;;2.42;2.08;;;0.30;99.90;;;;;;5058995;28;20033;-87
2021/12/23 14:05:49;;;;;;;1.08;1.08;;;0.30;99.90;;;;;;5055334;28;20045;-87
2021/12/23 14:08:16;;;;;;;2.28;2.08;;;0.30;99.90;;;;;;5052424;28;20057;-87
2021/12/23 14:10:43;;;;;;;1.92;1.83;;;0.30;99.90;;;;;;5037697;28;20052;-87